Кадала

Карта отелей и гостиниц, располагающихся рядом с аэропортом Кадала :

Кадала
Чита
Забайкальский край 52° 1' 34.4388" N, 113° 18' 18.36" E
Код аэродрома ИКАО
UIAA
Код аэродрома RU
УИАА
Координаты
N52.02623° E113.30510°
Превышение над уровнем моря
683
Основная полоса
11/29
Курс магнитный
109/289
Длина основной ВПП
2800
Ширина основной ВПП
58
Покрытие основной ВПП
Твёрдое (бетон)
Освещение ВПП
Постоянное
Тип: 
Аэродром
Класс аэродрома: 
Международный
Принадлежность: 
ГА
Статус: 
Действующий
Страна: 
Россия
Регион: 
Забайкальский край
Город: 
Чита
Дополнительная информация: 
Центральный краевой аэропорт. Горный. Военный индекс: XIAA / ЬИАА.
Схемы аэропортов: 
Погода: 

Авиационная погода в Кадале

Регион: 
Погода METAR: 
UIAA 171530Z AUTO VRB01MPS 9999 NCD 05/M02 Q1018 RMK QFE705/0940
Время наблюдения
2021-09-17T15:30:00Z
Температура C
5.0
Точка росы
-2.0
Направление ветра
0
Скорость ветра (узлы)
2
Метео видимость
6.21
Явления погоды
Условия полета
VFR
Аэропорт подробнее: 

Найти трансфер

С помощью этой формы Вы можете найти трансфер из аэропорта Кадала в город, аэропорт или вокзал:

Карта места

Javascript is required to view this map.

Погода в аэропортах:

Авиационная погода в аэропорту Международный

Регион: 
Погода METAR: 
UKLL 171630Z 01004MPS 3600 -SHRA BKN004 BKN030CB 17/16 Q1005 R31/290055 NOSIG
Время наблюдения
2021-09-17T16:30:00Z
Температура C
17.0
Точка росы
16.0
Направление ветра
10
Скорость ветра (узлы)
8
Метео видимость
2.24
Явления погоды
-SHRA
Условия полета
LIFR
Аэропорт подробнее: 

Авиационная погода в Могилёве

Регион: 
Погода METAR: 
UMOO 171230Z 07005MPS 4800 -RA BR OVC005 08/07 Q1014 R13/290068 NOSIG RMK QBB160
Время наблюдения
2021-09-17T12:30:00Z
Температура C
8.0
Точка росы
7.0
Направление ветра
70
Скорость ветра (узлы)
10
Метео видимость
2.98
Явления погоды
-RA BR
Условия полета
IFR
Аэропорт подробнее: 

Авиационная погода в Екатеринбурге

Регион: 
Погода METAR: 
USSS 171530Z 34002MPS 290V030 9999 -SHRA BKN019CB 07/04 Q1006 R26L/290050 R26R/290032 NOSIG RMK QFE734/0979
Время наблюдения
2021-09-17T15:30:00Z
Температура C
7.0
Точка росы
4.0
Направление ветра
340
Скорость ветра (узлы)
4
Метео видимость
6.21
Явления погоды
-SHRA
Условия полета
MVFR
Аэропорт подробнее: 

Авиационная погода в Тбилиси

Регион: 
Погода METAR: 
UGTB 171530Z 33017KT 9999 -SHRA SCT055CB 18/15 Q1015 R31L/19//60 NOSIG
Время наблюдения
2021-09-17T15:30:00Z
Температура C
18.0
Точка росы
15.0
Направление ветра
330
Скорость ветра (узлы)
17
Метео видимость
6.21
Явления погоды
-SHRA
Условия полета
VFR